Mae Sariang, Thailand
Current Conditions -  °F | °C
As of 1:30 AM on Tuesday 21 Oct 2014 (Local Time) from VTCC Reporting Station
Broken Clouds Broken Clouds  
Wind Chill: 77°   Ceiling: 4000
Heat Index: 78°   Visibility: 5mi
Dew Point: 72°   Wind: 3mph
Humidity: 83%   Direction: 330°NNW
Pressure: 30"   Gusts: NA
Location:  18.15°N, 97.93°E
Report Text: VTCC 201830Z 33003KT 8000 BKN040 25/22 Q1016 A3001 NOSIG
Loading
Personal Weather Stations






























Interactive Weather Map New forecast layout! Learn more

10-Day Weather Forecast

Advertisements
Track Severe Weather on mobile